Terminal Aerodrome Forecast
Issued by NWS Shreveport, LA

Home | Current Version | Previous Version | Text Only | Print | Product List | Glossary On
Versions: 1 2 3 4 5 6 7 8 9 10 11 12 13 14
000
FTUS44 KSHV 012323
TAFMLU
TAF
KMLU 012323Z 0200/0224 VRB06KT P6SM SCT050 BKN100 BKN250
     FM021500 VRB04KT P6SM FEW040 BKN100 BKN250
     FM021700 16005KT P6SM VCTS SCT045CB BKN120 BKN250=

USA.gov is the U.S. government's official web portal to all federal, state and local government web resources and services.